Terminal Aerodrome Forecast
Issued by NWS

Home | Current Version | Previous Version | Text Only | Print | Product List | Glossary Off
Versions: 1 2 3 4 5 6 7 8 9 10 11 12 13 14 15 16 17 18 19 20 21 22 23

000
FTUS43 KLOT 211740
TAFDPA
TAF
KDPA 211740Z 2118/2218 14003KT 1SM BR OVC004
      TEMPO 2118/2119 1/2SM -DZ FG OVC003
     FM211900 10004KT 1 1/2SM -DZ BR OVC003
      TEMPO 2119/2123 3/4SM -DZ BR
     FM212300 15007KT 3/4SM -DZ BR OVC003
      TEMPO 2123/2203 1/4SM DZ FG
     FM220900 12007KT 1SM SHRA BR OVC004 PROB30 2209/2215 -TSRA BR
      OVC003CB=

USA.gov is the U.S. government's official web portal to all federal, state and local government web resources and services.